Terminal Aerodrome Forecast
Issued by NWS

Home | Current Version | Previous Version | Text Only | Print | Product List | Glossary On
Versions: 1 2 3 4 5 6 7 8 9 10 11 12 13 14 15
000
FTUS41 KPBZ 231720
TAFLBE
TAF
KLBE 231720Z 2318/2418 12015KT P6SM FEW035 BKN200
     FM240900 12004KT P6SM VCSH BKN025
     FM241100 12005KT P6SM BKN015
     FM241600 13007KT P6SM VCSH BKN035=

USA.gov is the U.S. government's official web portal to all federal, state and local government web resources and services.